Time;durP1;ratioP1;P1;durP2;ratioP2;P2;SDS_P1;SDS_P2;PMS_P1;PMS_P2;Temp;Humidity;BMP_temperature;BMP_pressure;BME280_temperature;BME280_humidity;BME280_pressure;Samples;Min_cycle;Max_cycle;Signal;HPM_P1;HPM_P2
2021/05/10 00:02:00;;;;;;;;;;;20.30;65.80;;;;;;5031843;28;20007;-87
2021/05/10 00:04:25;;;;;;;;;;;20.40;66.00;;;;;;5031848;28;20254;-88
2021/05/10 00:06:51;;;;;;;;;;;20.30;65.90;;;;;;5031806;28;20074;-88
2021/05/10 00:09:16;;;;;;;;;;;20.40;66.10;;;;;;5031210;28;20424;-88
2021/05/10 00:11:42;;;;;;;;;;;20.30;66.10;;;;;;5031562;28;19905;-88
2021/05/10 00:14:07;;;;;;;;;;;20.30;66.30;;;;;;5031532;28;20324;-88
2021/05/10 00:16:33;;;;;;;;;;;20.30;66.30;;;;;;5031592;28;20297;-88
2021/05/10 00:18:59;;;;;;;;;;;20.30;66.10;;;;;;5030877;28;19931;-88
2021/05/10 00:21:25;;;;;;;;;;;20.30;66.40;;;;;;5031640;28;19912;-88
2021/05/10 00:23:50;;;;;;;;;;;20.30;66.50;;;;;;5031387;28;20536;-88
2021/05/10 00:26:16;;;;;;;;;;;20.30;67.10;;;;;;5048172;28;19951;-88
2021/05/10 00:28:41;;;;;;;;;;;20.30;67.30;;;;;;5031761;28;19913;-87
2021/05/10 00:31:07;;;;;;;;;;;20.30;67.70;;;;;;5031622;28;19909;-88
2021/05/10 00:33:32;;;;;;;;;;;20.30;67.90;;;;;;5034488;28;19909;-88
2021/05/10 00:35:58;;;;;;;;;;;20.30;69.20;;;;;;5034973;28;19905;-87
2021/05/10 00:38:23;;;;;;;;;;;20.20;70.50;;;;;;5035149;28;19905;-88
2021/05/10 00:40:49;;;;;;;;;;;20.20;71.30;;;;;;5031583;28;19955;-88
2021/05/10 00:43:14;;;;;;;;;;;20.20;71.60;;;;;;5032195;28;19913;-87
2021/05/10 00:45:40;;;;;;;;;;;20.20;72.10;;;;;;5030895;28;19905;-88
2021/05/10 00:48:05;;;;;;;;;;;20.20;73.20;;;;;;5047521;28;19919;-87
2021/05/10 00:50:31;;;;;;;;;;;20.10;72.50;;;;;;5030791;28;19911;-88
2021/05/10 00:52:57;;;;;;;;;;;20.10;72.60;;;;;;5030976;28;19909;-88
2021/05/10 00:55:22;;;;;;;;;;;20.10;72.90;;;;;;5047376;28;20003;-88
2021/05/10 00:57:53;;;;;;;;;;;20.10;72.80;;;;;;5032396;28;19912;-88
2021/05/10 01:00:20;;;;;;;;;;;20.10;72.90;;;;;;5034163;28;19909;-88
2021/05/10 01:02:45;;;;;;;;;;;20.10;73.10;;;;;;5036007;28;20461;-88
2021/05/10 01:05:11;;;;;;;;;;;20.10;72.90;;;;;;5034658;28;19949;-87
2021/05/10 01:07:37;;;;;;;;;;;20.10;73.00;;;;;;5034693;28;20297;-88
2021/05/10 01:10:07;;;;;;;;;;;20.00;73.70;;;;;;5035325;28;19905;-88
2021/05/10 01:12:33;;;;;;;;;;;20.00;72.90;;;;;;5034573;28;20020;-87
2021/05/10 01:14:59;;;;;;;;;;;20.00;72.60;;;;;;5034451;28;19940;-87
2021/05/10 01:17:24;;;;;;;;;;;20.00;72.50;;;;;;5035805;28;19963;-88
2021/05/10 01:19:50;;;;;;;;;;;20.00;72.40;;;;;;5035129;28;19909;-87
2021/05/10 01:22:16;;;;;;;;;;;20.00;72.00;;;;;;5035608;28;19913;-87
2021/05/10 01:24:42;;;;;;;;;;;20.00;71.20;;;;;;5035610;28;19906;-87
2021/05/10 01:27:08;;;;;;;;;;;20.00;71.20;;;;;;5035702;28;19932;-87
2021/05/10 01:29:33;;;;;;;;;;;20.00;70.80;;;;;;5033735;28;20365;-87
2021/05/10 01:31:59;;;;;;;;;;;20.00;70.30;;;;;;5034662;28;20016;-87
2021/05/10 01:34:24;;;;;;;;;;;20.00;69.40;;;;;;5035418;28;19909;-88
2021/05/10 01:36:50;;;;;;;;;;;20.10;69.20;;;;;;5034201;28;19905;-87
2021/05/10 01:39:15;;;;;;;;;;;20.10;68.70;;;;;;5033748;28;19916;-87
2021/05/10 01:41:41;;;;;;;;;;;20.10;68.00;;;;;;5033994;28;19905;-87
2021/05/10 01:44:07;;;;;;;;;;;20.10;67.40;;;;;;5033963;28;20380;-87
2021/05/10 01:46:32;;;;;;;;;;;20.20;66.90;;;;;;5033917;28;19905;-87
2021/05/10 01:48:58;;;;;;;;;;;20.20;65.80;;;;;;5033474;28;19941;-87
2021/05/10 01:51:24;;;;;;;;;;;20.30;65.60;;;;;;5034022;28;20273;-87
2021/05/10 01:53:49;;;;;;;;;;;20.30;65.90;;;;;;5033884;28;19908;-87
2021/05/10 01:56:15;;;;;;;;;;;20.30;65.90;;;;;;5035504;28;20377;-88
2021/05/10 01:58:41;;;;;;;;;;;20.30;66.10;;;;;;5034981;28;19913;-86
2021/05/10 02:01:06;;;;;;;;;;;20.30;65.60;;;;;;5033282;28;19963;-87
2021/05/10 02:03:32;;;;;;;;;;;20.30;66.00;;;;;;5050186;28;19959;-87
2021/05/10 02:05:57;;;;;;;;;;;20.30;65.60;;;;;;5050171;28;19984;-87
2021/05/10 02:08:23;;;;;;;;;;;20.30;65.10;;;;;;5049729;28;19914;-87
2021/05/10 02:10:50;;;;;;;;;;;20.30;64.90;;;;;;5032994;28;19912;-87
2021/05/10 02:13:19;;;;;;;;;;;20.30;64.70;;;;;;5033435;28;19913;-87
2021/05/10 02:15:45;;;;;;;;;;;20.30;64.50;;;;;;5033540;28;19909;-87
2021/05/10 02:18:13;;;;;;;;;;;20.30;64.40;;;;;;5033293;28;19912;-87
2021/05/10 02:20:49;;;;;;;;;;;20.40;64.10;;;;;;5032354;28;19909;-87
2021/05/10 02:23:20;;;;;;;;;;;20.40;64.10;;;;;;5031783;28;19909;-87
2021/05/10 02:26:36;;;;;;;;;;;20.40;64.10;;;;;;5033927;28;19952;-87
2021/05/10 02:29:15;;;;;;;;;;;20.40;65.00;;;;;;5033329;28;20369;-87
2021/05/10 02:32:02;;;;;;;;;;;20.30;66.10;;;;;;5032757;28;20381;-87
2021/05/10 02:34:28;;;;;;;;;;;20.40;65.00;;;;;;5033053;28;19919;-88
2021/05/10 02:36:53;;;;;;;;;;;20.40;65.70;;;;;;5033054;28;19996;-87
2021/05/10 02:39:19;;;;;;;;;;;20.40;65.80;;;;;;5032490;28;20008;-87
2021/05/10 02:41:44;;;;;;;;;;;20.30;65.80;;;;;;5034264;28;19905;-87
2021/05/10 02:44:10;;;;;;;;;;;20.40;65.50;;;;;;5032842;28;19991;-87
2021/05/10 02:46:35;;;;;;;;;;;20.30;65.30;;;;;;5032963;28;19948;-87
2021/05/10 02:49:01;;;;;;;;;;;20.30;64.80;;;;;;5032574;28;19996;-87
2021/05/10 02:51:26;;;;;;;;;;;20.40;64.90;;;;;;5049552;28;19980;-87
2021/05/10 02:53:52;;;;;;;;;;;20.30;64.50;;;;;;5032646;28;19905;-87
2021/05/10 02:56:17;;;;;;;;;;;20.30;64.60;;;;;;5032688;28;19908;-87
2021/05/10 02:58:43;;;;;;;;;;;20.30;64.40;;;;;;5033601;28;19951;-87
2021/05/10 03:01:09;;;;;;;;;;;20.30;64.40;;;;;;5032036;28;19956;-87
2021/05/10 03:03:34;;;;;;;;;;;20.30;64.30;;;;;;5033905;28;19999;-86
2021/05/10 03:06:00;;;;;;;;;;;20.30;64.30;;;;;;5033166;28;19956;-87
2021/05/10 03:08:25;;;;;;;;;;;20.30;64.50;;;;;;5032603;28;19912;-87
2021/05/10 03:10:51;;;;;;;;;;;20.30;64.30;;;;;;5031957;28;20413;-87
2021/05/10 03:13:16;;;;;;;;;;;20.30;64.40;;;;;;5033572;28;19908;-87
2021/05/10 03:15:42;;;;;;;;;;;20.30;64.60;;;;;;5032600;28;20246;-87
2021/05/10 03:18:07;;;;;;;;;;;20.30;64.80;;;;;;5032497;28;19958;-87
2021/05/10 03:20:34;;;;;;;;;;;20.30;64.80;;;;;;5047494;28;20285;-87
2021/05/10 03:22:59;;;;;;;;;;;20.20;65.00;;;;;;5032087;28;19905;-87
2021/05/10 03:25:25;;;;;;;;;;;20.20;65.00;;;;;;5032130;28;19905;-87
2021/05/10 03:27:51;;;;;;;;;;;20.20;65.00;;;;;;5033176;28;20412;-87
2021/05/10 03:30:17;;;;;;;;;;;20.20;65.30;;;;;;5031366;28;19905;-87
2021/05/10 03:32:43;;;;;;;;;;;20.20;65.20;;;;;;5033186;28;19995;-87
2021/05/10 03:35:10;;;;;;;;;;;20.10;65.40;;;;;;5033215;28;20008;-87
2021/05/10 03:37:36;;;;;;;;;;;20.10;65.10;;;;;;5031880;28;19912;-88
2021/05/10 03:40:02;;;;;;;;;;;20.10;65.20;;;;;;5031377;28;19909;-88
2021/05/10 03:42:27;;;;;;;;;;;20.10;65.40;;;;;;5031704;28;19962;-86
2021/05/10 03:44:53;;;;;;;;;;;20.00;65.30;;;;;;5031656;28;19909;-86
2021/05/10 03:47:19;;;;;;;;;;;20.00;65.60;;;;;;5032185;28;19912;-86
2021/05/10 03:49:45;;;;;;;;;;;20.00;65.60;;;;;;5032394;28;19905;-86
2021/05/10 03:52:11;;;;;;;;;;;20.00;65.60;;;;;;5049347;28;19911;-86
2021/05/10 03:54:36;;;;;;;;;;;20.00;65.80;;;;;;5032681;28;20451;-87
2021/05/10 03:57:02;;;;;;;;;;;20.00;65.80;;;;;;5033736;28;20373;-86
2021/05/10 03:59:27;;;;;;;;;;;20.00;66.70;;;;;;5031962;28;19917;-86
2021/05/10 04:01:54;;;;;;;;;;;20.00;66.00;;;;;;5032452;28;19905;-87
2021/05/10 04:04:26;;;;;;;;;;;20.00;66.30;;;;;;5031967;28;19951;-86
2021/05/10 04:15:09;;;;;;;;;;;20.00;66.50;;;;;;4983397;28;19953;-88
2021/05/10 04:17:35;;;;;;;;;;;20.00;66.20;;;;;;5031121;28;19912;-87
2021/05/10 04:20:01;;;;;;;;;;;20.00;66.40;;;;;;5030528;28;19999;-86
2021/05/10 04:22:26;;;;;;;;;;;20.00;66.70;;;;;;5032747;28;19992;-88
2021/05/10 04:24:52;;;;;;;;;;;20.00;69.20;;;;;;5032541;28;20404;-87
2021/05/10 04:27:19;;;;;;;;;;;19.90;70.30;;;;;;5031393;28;19905;-87
2021/05/10 04:29:44;;;;;;;;;;;19.90;70.60;;;;;;5030503;28;19905;-85
2021/05/10 04:32:10;;;;;;;;;;;19.90;70.70;;;;;;5036439;28;20268;-87
2021/05/10 04:34:35;;;;;;;;;;;19.90;70.00;;;;;;5039085;28;19944;-87
2021/05/10 04:37:01;;;;;;;;;;;19.90;69.70;;;;;;5038994;28;19905;-87
2021/05/10 04:39:26;;;;;;;;;;;19.90;69.90;;;;;;5036873;28;19913;-86
2021/05/10 04:41:52;;;;;;;;;;;19.90;69.40;;;;;;5037599;28;20025;-86
2021/05/10 04:44:17;;;;;;;;;;;19.90;69.00;;;;;;5038832;28;19971;-87
2021/05/10 04:46:43;;;;;;;;;;;19.90;69.00;;;;;;5038913;28;19911;-87
2021/05/10 04:49:08;;;;;;;;;;;19.90;69.10;;;;;;5037014;28;19905;-86
2021/05/10 04:51:34;;;;;;;;;;;19.90;69.00;;;;;;5037651;28;19906;-86
2021/05/10 04:53:59;;;;;;;;;;;19.90;68.90;;;;;;5037665;28;19904;-86
2021/05/10 04:56:25;;;;;;;;;;;19.90;69.10;;;;;;5038882;28;19914;-86
2021/05/10 04:58:50;;;;;;;;;;;19.90;69.10;;;;;;5038427;28;19913;-86
2021/05/10 05:01:16;;;;;;;;;;;19.90;69.20;;;;;;5038386;28;19905;-86
2021/05/10 05:03:41;;;;;;;;;;;19.90;69.20;;;;;;5037460;28;19936;-87
2021/05/10 05:06:07;;;;;;;;;;;19.90;69.00;;;;;;5054166;28;19913;-87
2021/05/10 05:08:32;;;;;;;;;;;19.90;69.20;;;;;;5037293;28;19928;-86
2021/05/10 05:10:58;;;;;;;;;;;19.90;69.20;;;;;;5038116;28;19905;-87
2021/05/10 05:13:25;;;;;;;;;;;19.90;68.80;;;;;;5053887;28;19912;-86
2021/05/10 05:15:50;;;;;;;;;;;19.90;68.90;;;;;;5037322;28;19912;-87
2021/05/10 05:18:16;;;;;;;;;;;19.90;68.80;;;;;;5038439;28;19905;-88
2021/05/10 05:20:41;;;;;;;;;;;19.90;68.90;;;;;;5036744;28;19909;-86
2021/05/10 05:23:17;;;;;;;;;;;19.90;69.10;;;;;;5037216;28;20345;-87
2021/05/10 05:25:42;;;;;;;;;;;20.00;69.00;;;;;;5037269;28;19940;-86
2021/05/10 05:28:08;;;;;;;;;;;20.00;69.00;;;;;;5037035;28;19943;-86
2021/05/10 05:30:33;;;;;;;;;;;20.00;68.90;;;;;;5037935;28;20350;-86
2021/05/10 05:32:59;;;;;;;;;;;20.00;68.90;;;;;;5036660;28;19905;-87
2021/05/10 05:35:24;;;;;;;;;;;20.00;68.80;;;;;;5037166;28;19928;-87
2021/05/10 05:37:50;;;;;;;;;;;20.00;69.10;;;;;;5038858;28;19951;-86
2021/05/10 05:40:15;;;;;;;;;;;20.00;69.50;;;;;;5037567;28;19913;-86
2021/05/10 05:42:41;;;;;;;;;;;19.90;70.20;;;;;;5035846;28;20277;-87
2021/05/10 05:45:07;;;;;;;;;;;20.00;69.40;;;;;;5035222;28;19936;-87
2021/05/10 05:47:32;;;;;;;;;;;19.90;69.40;;;;;;5035227;28;19905;-86
2021/05/10 05:49:58;;;;;;;;;;;19.90;69.90;;;;;;5034601;28;20324;-86
2021/05/10 05:52:23;;;;;;;;;;;19.90;69.40;;;;;;5034990;28;19905;-86
2021/05/10 05:54:51;;;;;;;;;;;19.90;69.60;;;;;;5035262;28;19951;-86
2021/05/10 05:57:16;;;;;;;;;;;19.90;69.60;;;;;;5035112;28;19915;-86
2021/05/10 05:59:42;;;;;;;;;;;19.90;69.60;;;;;;5038902;28;20283;-86
2021/05/10 06:02:07;;;;;;;;;;;19.90;69.50;;;;;;5039513;28;20368;-86
2021/05/10 06:04:33;;;;;;;;;;;19.90;69.60;;;;;;5053376;28;20051;-87
2021/05/10 06:06:58;;;;;;;;;;;19.90;69.80;;;;;;5035577;28;19912;-86
2021/05/10 06:09:25;;;;;;;;;;;19.90;70.10;;;;;;5032996;28;20354;-87
2021/05/10 06:11:53;;;;;;;;;;;19.90;70.10;;;;;;5034682;28;19912;-86
2021/05/10 06:14:19;;;;;;;;;;;19.90;70.30;;;;;;5033366;28;19909;-86
2021/05/10 06:16:44;;;;;;;;;;;19.80;70.50;;;;;;5033471;28;19912;-86
2021/05/10 06:19:11;;;;;;;;;;;19.80;70.50;;;;;;5049299;28;20324;-86
2021/05/10 06:21:38;;;;;;;;;;;19.90;70.70;;;;;;5033270;28;19912;-86
2021/05/10 06:24:03;;;;;;;;;;;19.90;70.90;;;;;;5034743;28;19905;-86
2021/05/10 06:26:29;;;;;;;;;;;19.90;70.70;;;;;;5034639;28;19959;-86
2021/05/10 06:28:54;;;;;;;;;;;19.90;70.80;;;;;;5049684;28;20328;-86
2021/05/10 06:31:20;;;;;;;;;;;19.90;70.90;;;;;;5033107;28;19912;-86
2021/05/10 06:33:47;;;;;;;;;;;19.90;71.00;;;;;;5034331;28;19920;-86
2021/05/10 06:36:12;;;;;;;;;;;19.90;70.80;;;;;;5033128;28;20266;-86
2021/05/10 06:38:38;;;;;;;;;;;19.90;70.90;;;;;;5034162;28;19912;-86
2021/05/10 06:41:03;;;;;;;;;;;19.90;70.70;;;;;;5032418;28;19909;-86
2021/05/10 06:43:29;;;;;;;;;;;19.90;71.10;;;;;;5033251;28;19905;-86
2021/05/10 06:45:54;;;;;;;;;;;19.90;71.30;;;;;;5034298;28;20278;-86
2021/05/10 06:48:28;;;;;;;;;;;19.90;71.50;;;;;;5032709;28;19905;-86
2021/05/10 06:50:53;;;;;;;;;;;19.90;71.80;;;;;;5032030;28;19940;-86
2021/05/10 06:53:19;;;;;;;;;;;20.00;71.50;;;;;;5032674;28;19955;-86
2021/05/10 06:55:44;;;;;;;;;;;20.00;72.10;;;;;;5048215;28;19951;-86
2021/05/10 06:58:10;;;;;;;;;;;20.00;72.20;;;;;;5033699;28;20274;-87
2021/05/10 07:00:37;;;;;;;;;;;20.00;72.00;;;;;;5048727;28;19916;-86
2021/05/10 07:03:03;;;;;;;;;;;20.00;72.20;;;;;;5033699;28;19912;-86
2021/05/10 07:05:28;;;;;;;;;;;20.10;72.60;;;;;;5032296;28;19905;-86
2021/05/10 07:07:54;;;;;;;;;;;20.10;72.50;;;;;;5032543;28;20422;-86
2021/05/10 07:10:19;;;;;;;;;;;20.10;72.60;;;;;;5048373;28;19909;-86
2021/05/10 07:12:45;;;;;;;;;;;20.10;71.90;;;;;;5048813;28;19905;-86
2021/05/10 07:15:10;;;;;;;;;;;20.10;72.10;;;;;;5032330;28;20235;-86
2021/05/10 07:17:36;;;;;;;;;;;20.10;72.10;;;;;;5033680;28;19905;-86
2021/05/10 07:20:01;;;;;;;;;;;20.10;72.20;;;;;;5032727;28;19909;-86
2021/05/10 07:22:27;;;;;;;;;;;20.10;71.90;;;;;;5033246;28;19955;-86
2021/05/10 07:24:52;;;;;;;;;;;20.20;71.20;;;;;;5032334;28;19905;-86
2021/05/10 07:27:18;;;;;;;;;;;20.20;71.40;;;;;;5031928;28;19905;-86
2021/05/10 07:29:43;;;;;;;;;;;20.20;71.30;;;;;;5031446;28;19999;-86
2021/05/10 07:32:09;;;;;;;;;;;20.20;71.10;;;;;;5048642;28;19905;-86
2021/05/10 07:34:34;;;;;;;;;;;20.20;71.20;;;;;;5031902;28;19913;-86
2021/05/10 07:37:00;;;;;;;;;;;20.20;71.20;;;;;;5033141;28;20354;-86
2021/05/10 07:39:25;;;;;;;;;;;20.30;70.60;;;;;;5031073;28;20400;-86
2021/05/10 07:41:51;;;;;;;;;;;20.30;70.80;;;;;;5031629;28;19905;-86
2021/05/10 07:44:16;;;;;;;;;;;20.30;70.60;;;;;;5031749;28;19905;-86
2021/05/10 07:46:42;;;;;;;;;;;20.20;69.90;;;;;;5033246;28;19905;-86
2021/05/10 07:49:07;;;;;;;;;;;20.20;70.00;;;;;;5030964;28;19909;-86
2021/05/10 07:51:33;;;;;;;;;;;20.20;70.20;;;;;;5031745;28;19905;-86
2021/05/10 07:53:58;;;;;;;;;;;20.20;70.30;;;;;;5031768;28;19956;-86
2021/05/10 07:56:24;;;;;;;;;;;20.10;70.90;;;;;;5032782;28;19992;-86
2021/05/10 07:58:51;;;;;;;;;;;20.00;70.60;;;;;;5031079;28;20380;-86
2021/05/10 08:01:16;;;;;;;;;;;19.90;70.90;;;;;;5031195;28;19905;-86
2021/05/10 08:03:43;;;;;;;;;;;19.80;71.10;;;;;;5031440;28;19912;-86
2021/05/10 08:06:09;;;;;;;;;;;19.80;71.20;;;;;;5032314;28;19909;-86
2021/05/10 08:08:34;;;;;;;;;;;19.80;71.60;;;;;;5032645;28;19905;-86
2021/05/10 08:11:04;;;;;;;;;;;19.70;72.00;;;;;;5032132;28;20042;-86
2021/05/10 08:13:29;;;;;;;;;;;19.70;72.00;;;;;;5031608;28;19951;-86
2021/05/10 08:15:55;;;;;;;;;;;19.80;72.30;;;;;;5031306;28;19952;-86
2021/05/10 08:18:20;;;;;;;;;;;19.80;72.30;;;;;;5031493;28;20004;-86
2021/05/10 08:20:46;;;;;;;;;;;19.80;72.60;;;;;;5047645;28;19909;-86
2021/05/10 08:23:12;;;;;;;;;;;19.90;72.70;;;;;;5031130;28;19913;-86
2021/05/10 08:25:38;;;;;;;;;;;19.90;72.40;;;;;;5032363;28;19908;-86
2021/05/10 08:28:04;;;;;;;;;;;19.90;72.50;;;;;;5031030;28;19905;-86
2021/05/10 08:30:29;;;;;;;;;;;19.90;72.20;;;;;;5047260;28;19976;-86
2021/05/10 08:32:57;;;;;;;;;;;19.90;71.80;;;;;;5030979;28;19951;-86
2021/05/10 08:35:23;;;;;;;;;;;19.80;71.70;;;;;;5031646;28;19909;-86
2021/05/10 08:37:48;;;;;;;;;;;19.80;72.00;;;;;;5031853;28;19912;-86
2021/05/10 08:40:14;;;;;;;;;;;19.80;72.40;;;;;;5032560;28;19916;-86
2021/05/10 08:42:42;;;;;;;;;;;19.80;72.70;;;;;;5032274;28;20348;-86
2021/05/10 08:45:08;;;;;;;;;;;19.70;72.30;;;;;;5032422;28;20393;-86
2021/05/10 08:47:34;;;;;;;;;;;19.60;72.90;;;;;;5030919;28;19905;-86
2021/05/10 08:50:00;;;;;;;;;;;19.60;73.30;;;;;;5030296;28;19905;-86
2021/05/10 08:52:26;;;;;;;;;;;19.60;73.30;;;;;;5031051;28;19988;-86
2021/05/10 08:54:52;;;;;;;;;;;19.50;73.30;;;;;;5031974;28;19954;-86
2021/05/10 08:57:17;;;;;;;;;;;19.60;73.50;;;;;;5031608;28;20364;-86
2021/05/10 08:59:43;;;;;;;;;;;19.60;73.60;;;;;;5031644;28;20331;-86
2021/05/10 09:02:09;;;;;;;;;;;19.60;73.90;;;;;;5032221;28;19905;-86
2021/05/10 09:04:36;;;;;;;;;;;19.60;74.00;;;;;;5032177;28;19905;-86
2021/05/10 09:07:10;;;;;;;;;;;19.60;73.30;;;;;;5030917;28;20354;-87
2021/05/10 09:09:55;;;;;;;;;;;19.60;73.20;;;;;;5031388;28;19905;-86
2021/05/10 09:12:22;;;;;;;;;;;19.60;73.40;;;;;;5031957;28;19952;-86
2021/05/10 09:14:49;;;;;;;;;;;19.60;73.90;;;;;;5030918;28;20305;-86
2021/05/10 09:17:15;;;;;;;;;;;19.70;74.00;;;;;;5031974;28;19905;-86
2021/05/10 09:19:44;;;;;;;;;;;19.70;73.90;;;;;;5034255;28;19909;-87
2021/05/10 09:22:10;;;;;;;;;;;19.70;73.10;;;;;;5034348;28;19911;-86
2021/05/10 09:24:45;;;;;;;;;;;19.60;73.90;;;;;;5035796;28;19988;-87
2021/05/10 09:27:25;;;;;;;;;;;19.60;73.60;;;;;;5034459;28;19905;-86
2021/05/10 09:29:52;;;;;;;;;;;19.60;73.40;;;;;;5033696;28;19905;-85
2021/05/10 09:32:24;;;;;;;;;;;19.60;73.70;;;;;;5036647;28;20388;-87
2021/05/10 09:35:10;;;;;;;;;;;19.60;73.80;;;;;;5035507;28;19913;-87
2021/05/10 09:37:35;;;;;;;;;;;19.50;73.50;;;;;;5035483;28;19905;-86
2021/05/10 09:40:04;;;;;;;;;;;19.40;73.70;;;;;;5033444;28;20362;-86
2021/05/10 09:42:50;;;;;;;;;;;19.40;74.10;;;;;;5035900;28;19905;-87
2021/05/10 09:45:29;;;;;;;;;;;19.40;73.70;;;;;;5034973;28;19927;-86
2021/05/10 09:48:11;;;;;;;;;;;19.40;73.40;;;;;;5033992;28;19912;-87
2021/05/10 09:50:38;;;;;;;;;;;19.40;73.30;;;;;;5050030;28;20036;-87
2021/05/10 09:53:04;;;;;;;;;;;19.40;72.40;;;;;;5035149;28;20285;-86
2021/05/10 09:55:49;;;;;;;;;;;19.40;72.30;;;;;;5035069;28;19905;-86
2021/05/10 09:58:15;;;;;;;;;;;19.40;72.40;;;;;;5034946;28;20032;-86
2021/05/10 10:00:41;;;;;;;;;;;19.40;72.70;;;;;;5033171;28;19909;-86
2021/05/10 10:03:30;;;;;;;;;;;19.30;72.80;;;;;;5034910;28;19916;-86
2021/05/10 10:05:56;;;;;;;;;;;19.30;72.60;;;;;;5033839;28;19905;-86
2021/05/10 10:08:23;;;;;;;;;;;19.30;73.30;;;;;;5033509;28;19904;-86
2021/05/10 10:10:49;;;;;;;;;;;19.40;73.10;;;;;;5033055;28;19905;-86
2021/05/10 10:13:15;;;;;;;;;;;19.40;72.50;;;;;;5033809;28;20286;-86
2021/05/10 10:15:41;;;;;;;;;;;19.40;72.00;;;;;;5033301;28;19912;-86
2021/05/10 10:18:07;;;;;;;;;;;19.30;71.60;;;;;;5033183;28;19917;-86
2021/05/10 10:20:33;;;;;;;;;;;19.30;71.80;;;;;;5032765;28;19999;-86
2021/05/10 10:22:59;;;;;;;;;;;19.30;71.90;;;;;;5033350;28;20361;-86
2021/05/10 10:25:25;;;;;;;;;;;19.30;72.20;;;;;;5033302;28;19940;-86
2021/05/10 10:27:51;;;;;;;;;;;19.30;73.30;;;;;;5033243;28;20246;-86
2021/05/10 10:30:18;;;;;;;;;;;19.30;72.30;;;;;;5032140;28;19906;-86
2021/05/10 10:32:43;;;;;;;;;;;19.30;72.50;;;;;;5033666;28;19905;-87
2021/05/10 10:35:10;;;;;;;;;;;19.30;72.30;;;;;;5034326;28;19916;-86
2021/05/10 10:37:35;;;;;;;;;;;19.30;72.50;;;;;;5034419;28;19904;-87
2021/05/10 10:40:03;;;;;;;;;;;19.20;72.40;;;;;;5033783;28;19955;-86
2021/05/10 10:42:33;;;;;;;;;;;19.20;72.80;;;;;;5032760;28;20316;-86
2021/05/10 10:45:02;;;;;;;;;;;19.20;73.40;;;;;;5032856;28;19954;-86
2021/05/10 10:47:44;;;;;;;;;;;19.20;73.60;;;;;;5049409;28;19909;-86
2021/05/10 10:50:11;;;;;;;;;;;19.20;73.80;;;;;;5032007;28;20376;-87
2021/05/10 10:52:53;;;;;;;;;;;19.10;74.50;;;;;;5032812;28;20292;-86
2021/05/10 10:55:20;;;;;;;;;;;19.10;75.40;;;;;;5034074;28;19945;-86
2021/05/10 10:57:46;;;;;;;;;;;19.10;75.70;;;;;;5032709;28;20081;-86
2021/05/10 11:00:15;;;;;;;;;;;19.00;76.00;;;;;;5031846;28;20254;-86
2021/05/10 11:02:44;;;;;;;;;;;19.10;76.00;;;;;;5032340;28;19905;-86
2021/05/10 11:05:11;;;;;;;;;;;19.10;76.10;;;;;;5032511;28;20314;-86
2021/05/10 11:07:58;;;;;;;;;;;19.10;76.30;;;;;;5033755;28;20508;-86
2021/05/10 11:10:43;;;;;;;;;;;19.00;76.50;;;;;;5033039;28;19905;-87
2021/05/10 11:13:28;;;;;;;;;;;19.00;76.30;;;;;;5032242;28;19906;-87
2021/05/10 11:15:54;;;;;;;;;;;18.90;76.20;;;;;;5032319;28;19960;-86
2021/05/10 11:18:33;;;;;;;;;;;18.80;76.80;;;;;;5032365;28;19905;-86
2021/05/10 11:20:59;;;;;;;;;;;18.80;77.30;;;;;;5032887;28;19908;-86
2021/05/10 11:23:24;;;;;;;;;;;18.80;78.10;;;;;;5034882;28;19912;-87
2021/05/10 11:25:51;;;;;;;;;;;18.90;78.20;;;;;;5036830;28;19905;-86
2021/05/10 11:28:28;;;;;;;;;;;19.00;78.10;;;;;;5035847;28;19958;-87
2021/05/10 11:30:57;;;;;;;;;;;19.10;78.20;;;;;;5034333;28;19981;-86
2021/05/10 11:33:41;;;;;;;;;;;19.20;77.20;;;;;;5048437;28;20014;-86
2021/05/10 11:36:07;;;;;;;;;;;19.30;76.70;;;;;;5031931;28;20427;-87
2021/05/10 11:38:33;;;;;;;;;;;19.40;76.70;;;;;;5048782;28;20349;-87
2021/05/10 11:40:59;;;;;;;;;;;19.50;76.60;;;;;;5047103;28;19963;-86
2021/05/10 11:43:24;;;;;;;;;;;19.50;75.70;;;;;;5032998;28;19912;-86
2021/05/10 11:45:51;;;;;;;;;;;19.40;75.80;;;;;;5031844;28;19912;-86
2021/05/10 11:48:37;;;;;;;;;;;19.50;75.80;;;;;;5031594;28;20365;-87
2021/05/10 11:51:16;;;;;;;;;;;19.50;75.40;;;;;;5030836;28;19909;-86
2021/05/10 11:53:42;;;;;;;;;;;19.40;74.90;;;;;;5031660;28;20251;-86
2021/05/10 11:56:07;;;;;;;;;;;19.30;75.20;;;;;;5032745;28;19912;-86
2021/05/10 11:58:41;;;;;;;;;;;19.30;75.70;;;;;;5031471;28;19955;-87
2021/05/10 12:01:09;;;;;;;;;;;19.30;75.90;;;;;;5031852;28;20409;-87
2021/05/10 12:03:35;;;;;;;;;;;19.30;76.00;;;;;;5031411;28;19932;-86
2021/05/10 12:06:00;;;;;;;;;;;19.30;76.20;;;;;;5031354;28;19905;-86
2021/05/10 12:08:36;;;;;;;;;;;19.00;77.60;;;;;;5031257;28;19905;-87
2021/05/10 12:11:03;;;;;;;;;;;18.80;78.80;;;;;;5030860;28;19959;-86
2021/05/10 12:13:29;;;;;;;;;;;18.50;79.30;;;;;;5031263;28;20318;-87
2021/05/10 12:16:05;;;;;;;;;;;18.10;80.60;;;;;;5031404;28;20317;-86
2021/05/10 12:18:30;;;;;;;;;;;18.00;81.40;;;;;;5031406;28;19911;-86
2021/05/10 12:20:56;;;;;;;;;;;18.00;81.90;;;;;;5030332;28;19909;-86
2021/05/10 12:23:21;;;;;;;;;;;18.00;82.20;;;;;;5031132;28;19924;-86
2021/05/10 12:25:47;;;;;;;;;;;17.70;82.50;;;;;;5031249;28;19952;-86
2021/05/10 12:28:23;;;;;;;;;;;17.60;82.90;;;;;;5031416;28;20366;-87
2021/05/10 12:30:49;;;;;;;;;;;17.50;83.90;;;;;;5032195;28;19905;-87
2021/05/10 12:33:25;;;;;;;;;;;17.40;84.30;;;;;;5032432;28;19909;-87
2021/05/10 12:35:53;;;;;;;;;;;17.40;84.30;;;;;;5031546;28;19905;-86
2021/05/10 12:38:31;;;;;;;;;;;17.40;84.50;;;;;;5032413;28;20407;-87
2021/05/10 12:40:57;;;;;;;;;;;17.40;84.70;;;;;;5030527;28;20003;-86
2021/05/10 12:43:23;;;;;;;;;;;17.40;84.70;;;;;;5032087;28;20392;-86
2021/05/10 12:45:55;;;;;;;;;;;17.40;84.50;;;;;;5032791;28;19906;-86
2021/05/10 12:48:21;;;;;;;;;;;17.40;84.60;;;;;;5033695;28;19924;-86
2021/05/10 12:50:48;;;;;;;;;;;17.60;84.80;;;;;;5031472;28;20274;-86
2021/05/10 12:53:14;;;;;;;;;;;17.60;84.20;;;;;;5034650;28;20364;-87
2021/05/10 12:55:40;;;;;;;;;;;17.70;83.90;;;;;;5034944;28;20000;-86
2021/05/10 12:58:19;;;;;;;;;;;17.70;83.70;;;;;;5034675;28;19909;-86
2021/05/10 13:00:46;;;;;;;;;;;17.90;83.10;;;;;;5034192;28;19919;-86
2021/05/10 13:03:28;;;;;;;;;;;17.70;83.10;;;;;;5034937;28;19909;-86
2021/05/10 13:05:53;;;;;;;;;;;17.70;83.20;;;;;;5051224;28;19912;-86
2021/05/10 13:08:35;;;;;;;;;;;17.80;82.60;;;;;;5035475;28;20277;-87
2021/05/10 13:11:01;;;;;;;;;;;17.70;81.90;;;;;;5034109;28;19905;-87
2021/05/10 13:13:36;;;;;;;;;;;17.70;81.90;;;;;;5036005;28;19931;-86
2021/05/10 13:16:17;;;;;;;;;;;17.60;82.00;;;;;;5035992;28;19905;-86
2021/05/10 13:18:53;;;;;;;;;;;17.60;82.50;;;;;;5035862;28;19949;-86
2021/05/10 13:32:01;;;;;;;;;;;17.80;81.70;;;;;;5035820;28;19912;-87
2021/05/10 13:34:39;;;;;;;;;;;17.90;80.10;;;;;;5050838;28;19913;-87
2021/05/10 13:37:05;;;;;;;;;;;18.10;80.80;;;;;;5035500;28;19905;-87
2021/05/10 13:39:31;;;;;;;;;;;18.30;80.40;;;;;;5034859;28;19909;-87
2021/05/10 13:44:28;;;;;;;;;;;18.60;78.60;;;;;;5035348;28;19905;-87
2021/05/10 13:46:55;;;;;;;;;;;18.60;77.50;;;;;;5035305;28;19959;-87
2021/05/10 13:49:21;;;;;;;;;;;18.80;77.50;;;;;;5033269;28;19940;-87
2021/05/10 13:51:48;;;;;;;;;;;18.80;75.50;;;;;;5033875;28;19924;-87
2021/05/10 13:54:14;;;;;;;;;;;18.90;75.40;;;;;;5050471;28;19909;-87
2021/05/10 13:56:40;;;;;;;;;;;19.00;75.00;;;;;;5033869;28;19924;-87
2021/05/10 13:59:05;;;;;;;;;;;19.10;74.60;;;;;;5034571;28;20346;-87
2021/05/10 14:01:32;;;;;;;;;;;19.20;73.40;;;;;;5033637;28;19912;-87
2021/05/10 14:03:57;;;;;;;;;;;19.20;73.10;;;;;;5034277;28;19915;-87
2021/05/10 14:06:23;;;;;;;;;;;19.10;72.50;;;;;;5033564;28;19905;-87
2021/05/10 14:08:48;;;;;;;;;;;19.10;73.00;;;;;;5034942;28;20377;-88
2021/05/10 14:11:14;;;;;;;;;;;19.10;72.30;;;;;;5034730;28;20330;-86
2021/05/10 14:13:39;;;;;;;;;;;19.00;72.10;;;;;;5033789;28;19909;-87
2021/05/10 14:16:05;;;;;;;;;;;19.00;72.60;;;;;;5033389;28;19905;-87
2021/05/10 14:18:34;;;;;;;;;;;19.00;72.00;;;;;;5033539;28;19909;-87
2021/05/10 14:23:44;;;;;;;;;;;19.00;71.80;;;;;;5034888;28;19951;-87
2021/05/10 14:26:11;;;;;;;;;;;19.00;71.20;;;;;;5033300;28;19909;-87
2021/05/10 14:28:39;;;;;;;;;;;19.00;70.40;;;;;;5034319;28;19905;-87
2021/05/10 14:31:06;;;;;;;;;;;19.00;70.80;;;;;;5049175;28;19905;-87
2021/05/10 14:33:31;;;;;;;;;;;19.10;70.80;;;;;;5033012;28;19944;-87
2021/05/10 14:35:57;;;;;;;;;;;19.20;70.20;;;;;;5033044;28;19908;-87
2021/05/10 14:38:24;;;;;;;;;;;19.20;70.30;;;;;;5034169;28;19905;-87
2021/05/10 14:40:50;;;;;;;;;;;19.20;69.70;;;;;;5032214;28;19913;-87
2021/05/10 14:43:16;;;;;;;;;;;19.30;70.30;;;;;;5049461;28;19950;-87